首页
METAR-TAF:

METAR-TAF

机场 :

聖約翰斯, 紐芬蘭-拉布拉多, 加拿大

圣约翰斯国际机场

纬度: 47-37N, 经度: 052-44W, 海拔: 134米

当前天气观测

该预报发布于1小时和2分钟前的04:00 UTC
风速15节,风向南转西南,有时为23节阵风
温度 9°C
湿度 81%
气压 1023 hPa
能見度: 24.1公里
阴天层高于12000英尺

METAR: CYYT 270400Z 20015G23KT 15SM OVC120 09/06 A3021 RMK AC8 SLP234

时间: 02:32 (05:02 UTC)

预报

该预报发布于5小时和24分钟前的23:38 UTC
预报有效从27日的 00点(UTC)到 27日的 24点(UTC)
风速13节,风向南转西南,有时为23节阵风
能見度: 10公里
阴天层高于20000英尺
从 27日的 0500点(UTC)
风速15节,风向,有时为25节阵风
能見度: 10公里
散云层高于3000英尺
多云层高于8000英尺
短暂存在
从 27日的 05点(UTC)到 27日的 09点(UTC)
多云层高于2000英尺
阴天层高于3000英尺
从 27日的 0900点(UTC)
风速18节,风向,有时为30节阵风
能見度: 10公里
多云层高于1200英尺
阴天层高于5000英尺
小雨
从 27日的 1100点(UTC)
风速25节,风向,有时为35节阵风
能見度: 6.4公里
多云层高于800英尺
阴天层高于1500英尺
小阵雨, 轻雾
从 27日的 1500点(UTC)
风速25节,风向西南,有时为40节阵风
能見度: 10公里
散云层高于800英尺
阴天层高于1500英尺
小毛毛雨, 小雨
成为
从 27日的 16点(UTC)到 27日的 18点(UTC)
风速12节,风向西转西南,有时为25节阵风
从 27日的 2100点(UTC)
风速12节,风向南转西南
能見度: 10公里
多云层高于800英尺

TAF: CYYT 262338Z 2700/2724 21013G23KT P6SM OVC200 FM270500 19015G25KT P6SM SCT030 BKN080 TEMPO 2705/2709 BKN020 OVC030 FM270900 18018G30KT P6SM -RA BKN012 OVC050 FM271100 18025G35KT 4SM -SHRA BR BKN008 OVC015 FM271500 22025G40KT P6SM -DZ -RA SCT008 OVC015 BECMG 2716/2718 24012G25KT FM272100 21012KT P6SM BKN008 RMK NXT FCST BY 270600Z

超过4000个机场的气象观测和天气预报(METAR&TAF报告)。

可查询的气象台以黄色和红色小点在地图上表示。

将鼠标移到小点上方,可查看气象台名称。

然后点击查看天气观测和预报。

如需切换地图:点击带黑十字的绿色按钮放大地图;点击带横线的绿色按钮缩小地图;或者点击绿色箭头查看邻近地区的地图。


METAR-TAF: